Portada
METAR-TAF:

METAR-TAF

Aeroports :

Lleida-Alguaire

Lleida, Espanya

latitud: 41-43-40N, longitud: 000-32-09E, altitud: 350 m

Observació

L'informe es va fer fa 15 minuts, a les 05:00 UTC
Vent 4 kt del Sud/Sud-Oest, variant entre Sud i Oest/Sud-Oest
Temperatura 7°C
Humitat 100%
Pressió 1017 hPa
Visibilitat: 8000 m
Escasses núvols a una alçada de 300 ft

METAR: LEDA 210500Z AUTO 21004KT 190V250 8000 FEW003 07/07 Q1017

Hora: 07:15 (05:15 UTC)


TAF: manca

Observacions i pronòstics meteorològics de més de 4000 aeroports (METAR i TAF).

Les estacions disponibles són els punts grocs i vermells al mapa.

Posi el ratolí al punt desitjat per veure el nom de l'estació.

Feu clic per veure les observacions i els pronòstics meteorològics.

Per canviar el mapa: feu clic els botons verds amb una creu de color negre per apropar; al botó verd amb un guió per allunyar la imatge; o en les fletxes verdes per a mapes adjacents.


METAR-TAF: